createdAt,value
2018-04-14T00:01:11.349Z,80.60
2018-04-14T00:03:39.213Z,81.10
2018-04-14T00:06:07.121Z,80.80
2018-04-14T00:08:34.886Z,80.40
2018-04-14T00:11:02.934Z,80.50
2018-04-14T00:13:31.193Z,80.50
2018-04-14T00:15:59.041Z,80.50
2018-04-14T00:18:26.846Z,80.30
2018-04-14T00:20:55.614Z,80.50
2018-04-14T00:23:24.445Z,80.80
2018-04-14T00:25:52.410Z,81.10
2018-04-14T00:28:20.109Z,80.80
2018-04-14T00:30:47.839Z,80.70
2018-04-14T00:33:15.551Z,80.30
2018-04-14T00:35:44.414Z,80.40
2018-04-14T00:38:12.937Z,80.30
2018-04-14T00:40:40.711Z,80.30
2018-04-14T00:43:08.463Z,80.40
2018-04-14T00:45:36.331Z,80.50
2018-04-14T00:48:04.204Z,80.50
2018-04-14T00:50:31.984Z,80.60
2018-04-14T00:53:11.496Z,80.50
2018-04-14T00:55:39.287Z,80.30
2018-04-14T00:58:07.206Z,80.50
2018-04-14T01:00:36.771Z,80.30
2018-04-14T01:03:06.719Z,80.60
2018-04-14T01:05:34.536Z,80.90
2018-04-14T01:08:02.445Z,81.00
2018-04-14T01:10:30.883Z,81.40
2018-04-14T01:12:59.833Z,81.30
2018-04-14T01:15:28.476Z,81.40
2018-04-14T01:17:56.297Z,81.30
2018-04-14T01:20:25.354Z,81.30
2018-04-14T01:22:53.171Z,81.50
2018-04-14T01:25:21.256Z,81.30
2018-04-14T01:27:49.017Z,81.10
2018-04-14T01:30:16.722Z,81.30
2018-04-14T01:32:44.521Z,81.30
2018-04-14T01:35:12.288Z,81.80
2018-04-14T01:37:40.085Z,82.00
2018-04-14T01:40:08.680Z,82.30
2018-04-14T01:42:36.654Z,81.20
2018-04-14T01:45:04.496Z,81.40
2018-04-14T01:47:32.210Z,81.30
2018-04-14T01:50:00.107Z,81.10
2018-04-14T01:52:27.808Z,81.20
2018-04-14T01:54:55.832Z,81.20
2018-04-14T01:57:23.565Z,81.20
2018-04-14T01:59:51.367Z,81.10
2018-04-14T02:02:19.155Z,81.20
2018-04-14T02:04:46.850Z,81.20
2018-04-14T02:07:15.455Z,81.60
2018-04-14T02:09:43.185Z,81.60
2018-04-14T02:12:11.717Z,81.00
2018-04-14T02:14:39.697Z,81.00
2018-04-14T02:17:07.537Z,81.90
2018-04-14T02:19:35.423Z,81.10
2018-04-14T02:22:03.303Z,81.20
2018-04-14T02:24:31.280Z,81.60
2018-04-14T02:26:59.147Z,82.20
2018-04-14T02:29:27.930Z,81.70
2018-04-14T02:31:56.482Z,82.50
2018-04-14T02:34:24.254Z,82.50
2018-04-14T02:36:53.350Z,82.80
2018-04-14T02:39:21.339Z,82.70
2018-04-14T02:41:49.688Z,82.60
2018-04-14T02:44:17.656Z,82.60
2018-04-14T02:46:45.565Z,82.80
2018-04-14T02:49:14.368Z,82.60
2018-04-14T02:51:43.091Z,82.80
2018-04-14T02:54:11.379Z,82.80
2018-04-14T02:56:39.052Z,83.30
2018-04-14T02:59:06.816Z,84.50
2018-04-14T03:07:19.925Z,84.50
2018-04-14T03:09:47.657Z,85.00
2018-04-14T03:12:15.429Z,85.20
2018-04-14T03:14:43.909Z,85.00
2018-04-14T03:17:11.862Z,85.20
2018-04-14T03:19:39.638Z,85.10
2018-04-14T03:22:08.693Z,85.50
2018-04-14T03:24:37.506Z,85.40
2018-04-14T03:27:05.347Z,85.70
2018-04-14T03:29:33.105Z,86.20
2018-04-14T03:32:00.956Z,85.90
2018-04-14T03:34:28.690Z,86.10
2018-04-14T03:36:56.719Z,85.80
2018-04-14T03:39:24.528Z,86.00
2018-04-14T03:41:56.081Z,85.90
2018-04-14T03:44:24.837Z,85.80
2018-04-14T03:46:52.576Z,85.80
2018-04-14T03:49:20.314Z,85.80
2018-04-14T03:51:48.920Z,85.90
2018-04-14T03:54:16.729Z,85.90
2018-04-14T03:56:44.565Z,85.50
2018-04-14T03:59:12.399Z,86.00
2018-04-14T04:01:40.224Z,86.50
2018-04-14T04:04:08.045Z,86.80
2018-04-14T04:06:35.859Z,86.20
2018-04-14T04:09:03.847Z,85.80
2018-04-14T04:11:33.263Z,85.70
2018-04-14T04:14:02.135Z,86.10
2018-04-14T04:16:29.986Z,85.90
2018-04-14T04:19:09.727Z,85.60
2018-04-14T04:21:49.144Z,85.50
2018-04-14T04:24:29.411Z,85.60
2018-04-14T04:26:58.367Z,85.80
2018-04-14T04:29:26.423Z,85.70
2018-04-14T04:31:55.172Z,85.40
2018-04-14T04:34:23.173Z,85.20
2018-04-14T04:36:50.942Z,85.10
2018-04-14T04:39:18.688Z,84.80
2018-04-14T04:41:46.510Z,84.90
2018-04-14T04:44:14.225Z,85.30
2018-04-14T04:46:42.445Z,85.40
2018-04-14T04:49:10.403Z,85.30
2018-04-14T04:51:39.125Z,85.40
2018-04-14T04:54:06.838Z,85.60
2018-04-14T04:56:35.224Z,85.80
2018-04-14T04:59:03.004Z,85.70
2018-04-14T05:01:30.867Z,85.50
2018-04-14T05:03:58.625Z,85.60
2018-04-14T05:06:26.420Z,85.50
2018-04-14T05:08:54.167Z,86.00
2018-04-14T05:11:22.015Z,86.00
2018-04-14T05:13:49.762Z,85.80
2018-04-14T05:16:17.686Z,85.60
2018-04-14T05:18:45.453Z,86.10
2018-04-14T05:21:14.031Z,85.70
2018-04-14T05:23:41.867Z,85.70
2018-04-14T05:26:09.755Z,85.50
2018-04-14T05:28:39.266Z,85.60
2018-04-14T05:31:07.134Z,85.70
2018-04-14T05:33:35.087Z,85.70
2018-04-14T05:36:03.639Z,85.50
2018-04-14T05:38:31.385Z,85.50
2018-04-14T05:41:00.013Z,85.60
2018-04-14T05:43:27.899Z,85.50
2018-04-14T05:45:56.680Z,84.90
2018-04-14T05:48:25.524Z,84.80
2018-04-14T05:50:53.518Z,84.60
2018-04-14T05:53:21.612Z,84.40
2018-04-14T05:55:50.191Z,84.30
2018-04-14T05:58:18.029Z,84.30
2018-04-14T06:00:46.024Z,84.10
2018-04-14T06:03:14.517Z,84.40
2018-04-14T06:05:42.694Z,84.30
2018-04-14T06:08:10.493Z,84.10
2018-04-14T06:10:38.572Z,84.00
2018-04-14T06:13:06.370Z,82.80
2018-04-14T06:15:34.234Z,82.60
2018-04-14T06:18:01.948Z,82.30
2018-04-14T06:20:29.989Z,82.30
2018-04-14T06:22:57.858Z,82.30
2018-04-14T06:25:25.658Z,82.00
2018-04-14T06:27:53.747Z,81.90
2018-04-14T06:30:21.713Z,81.60
2018-04-14T06:32:49.483Z,81.40
2018-04-14T06:35:17.630Z,81.10
2018-04-14T06:37:45.418Z,80.50
2018-04-14T06:40:13.542Z,80.40
2018-04-14T06:42:41.381Z,80.10
2018-04-14T06:45:09.304Z,80.60
2018-04-14T06:47:37.003Z,79.50
2018-04-14T06:50:05.125Z,79.30
2018-04-14T06:52:33.259Z,79.00
2018-04-14T06:55:01.633Z,78.40
2018-04-14T06:57:29.635Z,78.10
2018-04-14T06:59:57.962Z,77.70
2018-04-14T07:02:26.996Z,77.70
2018-04-14T07:04:55.206Z,77.60
2018-04-14T07:07:23.192Z,77.20
2018-04-14T07:09:51.622Z,77.10
2018-04-14T07:12:19.546Z,76.60
2018-04-14T07:14:47.553Z,76.00
2018-04-14T07:17:16.626Z,74.50
2018-04-14T07:19:45.962Z,74.50
2018-04-14T07:22:13.909Z,74.80
2018-04-14T07:24:41.772Z,74.50
2018-04-14T07:27:10.595Z,74.20
2018-04-14T07:29:38.608Z,74.30
2018-04-14T07:32:06.704Z,75.30
2018-04-14T07:34:34.886Z,75.50
2018-04-14T07:37:04.381Z,74.60
2018-04-14T07:39:33.104Z,74.20
2018-04-14T07:42:01.174Z,74.20
2018-04-14T07:44:29.138Z,73.70
2018-04-14T07:46:57.009Z,73.00
2018-04-14T07:49:26.019Z,72.10
2018-04-14T07:51:53.898Z,71.80
2018-04-14T07:54:21.847Z,71.20
2018-04-14T07:56:51.021Z,70.80
2018-04-14T07:59:18.952Z,70.60
2018-04-14T08:01:47.018Z,71.70
2018-04-14T08:04:14.808Z,71.00
2018-04-14T08:06:42.625Z,70.90
2018-04-14T08:09:10.725Z,70.80
2018-04-14T08:11:39.702Z,70.70
2018-04-14T08:14:07.745Z,70.70
2018-04-14T08:16:35.905Z,69.50
2018-04-14T08:19:03.909Z,68.30
2018-04-14T08:21:31.983Z,68.80
2018-04-14T08:24:01.686Z,68.50
2018-04-14T08:26:29.751Z,68.50
2018-04-14T08:28:57.652Z,68.60
2018-04-14T08:31:27.084Z,66.90
2018-04-14T08:33:54.984Z,66.90
2018-04-14T08:36:23.090Z,65.50
2018-04-14T08:38:52.523Z,66.80
2018-04-14T08:41:20.381Z,66.70
2018-04-14T08:43:48.446Z,66.00
2018-04-14T08:46:17.283Z,64.20
2018-04-14T08:48:46.265Z,60.40
2018-04-14T08:51:14.422Z,61.30
2018-04-14T08:53:42.328Z,54.70
2018-04-14T08:56:10.186Z,52.00
2018-04-14T08:58:38.157Z,48.70
2018-04-14T09:01:06.095Z,48.90
2018-04-14T09:03:34.018Z,49.70
2018-04-14T09:06:02.157Z,49.80
2018-04-14T09:08:30.117Z,50.60
2018-04-14T09:10:58.751Z,51.90
2018-04-14T09:13:27.384Z,51.50
2018-04-14T09:15:55.901Z,53.60
2018-04-14T09:18:23.836Z,51.60
2018-04-14T09:20:52.050Z,49.90
2018-04-14T09:23:20.285Z,49.80
2018-04-14T09:25:48.406Z,50.70
2018-04-14T09:28:17.318Z,44.00
2018-04-14T09:30:45.838Z,43.90
2018-04-14T09:33:13.944Z,44.30
2018-04-14T09:35:42.836Z,45.40
2018-04-14T09:38:10.881Z,41.20
2018-04-14T09:40:38.786Z,45.90
2018-04-14T09:43:06.798Z,44.60
2018-04-14T09:45:35.475Z,41.20
2018-04-14T09:48:03.559Z,43.20
2018-04-14T09:50:31.572Z,42.00
2018-04-14T09:53:00.877Z,40.70
2018-04-14T09:55:29.748Z,44.70
2018-04-14T09:57:57.979Z,44.70
2018-04-14T10:00:27.594Z,47.90
2018-04-14T10:03:00.560Z,47.10
2018-04-14T10:05:29.435Z,47.80
2018-04-14T10:07:57.499Z,47.60
2018-04-14T10:10:26.274Z,46.40
2018-04-14T10:12:54.335Z,45.50
2018-04-14T10:15:22.284Z,45.10
2018-04-14T10:17:50.574Z,42.30
2018-04-14T10:20:18.631Z,42.90
2018-04-14T10:22:46.556Z,45.50
2018-04-14T10:25:14.522Z,44.10
2018-04-14T10:27:42.427Z,45.30
2018-04-14T10:30:11.118Z,48.50
2018-04-14T10:32:39.844Z,51.50
2018-04-14T10:35:08.194Z,49.20
2018-04-14T10:37:36.835Z,50.80
2018-04-14T10:40:05.957Z,48.20
2018-04-14T10:42:34.197Z,42.70
2018-04-14T10:45:02.438Z,46.70
2018-04-14T10:47:30.501Z,44.40
2018-04-14T10:50:01.017Z,41.40
2018-04-14T10:52:29.892Z,41.40
2018-04-14T10:54:58.619Z,38.40
2018-04-14T10:57:27.415Z,37.70
2018-04-14T10:59:55.293Z,37.60
2018-04-14T11:02:24.154Z,41.10
2018-04-14T11:04:53.915Z,40.30
2018-04-14T11:07:23.635Z,41.60
2018-04-14T11:09:52.255Z,39.30
2018-04-14T11:12:21.978Z,43.20
2018-04-14T11:14:50.148Z,43.20
2018-04-14T11:17:18.028Z,46.60
2018-04-14T11:19:46.565Z,45.70
2018-04-14T11:22:14.620Z,47.00
2018-04-14T11:24:43.620Z,47.40
2018-04-14T11:27:11.845Z,48.40
2018-04-14T11:29:42.070Z,48.20
2018-04-14T11:32:10.050Z,50.80
2018-04-14T14:35:37.088Z,50.50
2018-04-14T14:38:06.107Z,51.80
2018-04-14T14:40:35.186Z,50.10
2018-04-14T14:43:04.882Z,53.20
2018-04-14T14:45:33.192Z,53.10
2018-04-14T14:48:02.346Z,51.80
2018-04-14T14:50:31.060Z,51.50
2018-04-14T14:52:59.616Z,51.30
2018-04-14T14:55:28.679Z,51.60
2018-04-14T14:57:57.289Z,49.80
2018-04-14T15:00:25.725Z,50.50
2018-04-14T15:02:54.586Z,50.00
2018-04-14T15:05:23.219Z,49.80
2018-04-14T15:07:51.791Z,48.00
2018-04-14T15:10:22.003Z,47.50
2018-04-14T15:12:51.676Z,47.40
2018-04-14T15:15:20.395Z,45.70
2018-04-14T15:17:49.459Z,46.20
2018-04-14T15:20:19.206Z,42.20
2018-04-14T15:22:48.112Z,42.70
2018-04-14T15:25:16.721Z,42.10
2018-04-14T15:27:45.078Z,42.90
2018-04-14T15:30:14.618Z,43.50
2018-04-14T15:32:43.324Z,41.70
2018-04-14T15:35:11.558Z,40.80
2018-04-14T15:37:40.533Z,40.50
2018-04-14T15:40:09.325Z,37.60
2018-04-14T15:42:37.902Z,40.50
2018-04-14T15:45:06.200Z,38.30
2018-04-14T15:47:34.823Z,39.70
2018-04-14T15:50:05.119Z,41.00
2018-04-14T15:52:34.244Z,43.10
2018-04-14T15:55:04.438Z,44.10
2018-04-14T15:57:33.609Z,45.50
2018-04-14T16:00:02.663Z,45.50
2018-04-14T16:02:31.283Z,45.60
2018-04-14T16:04:59.808Z,47.90
2018-04-14T16:07:28.946Z,52.00
2018-04-14T16:09:57.454Z,52.00
2018-04-14T16:12:25.757Z,52.00
2018-04-14T16:14:54.081Z,52.10
2018-04-14T16:17:22.230Z,51.20
2018-04-14T16:19:50.471Z,53.40
2018-04-14T16:22:19.578Z,55.30
2018-04-14T16:24:48.795Z,53.80
2018-04-14T16:27:17.024Z,53.80
2018-04-14T16:29:45.242Z,54.40
2018-04-14T16:32:15.393Z,55.40
2018-04-14T16:34:45.904Z,55.30
2018-04-14T16:37:15.691Z,57.10
2018-04-14T16:39:44.240Z,57.00
2018-04-14T16:42:12.813Z,57.60
2018-04-14T16:44:43.837Z,57.90
2018-04-14T16:47:12.791Z,57.90
2018-04-14T16:49:41.733Z,58.50
2018-04-14T16:52:11.284Z,58.80
2018-04-14T16:54:40.510Z,60.00
2018-04-14T16:57:09.159Z,60.50
2018-04-14T16:59:37.915Z,58.90
2018-04-14T17:02:06.582Z,59.50
2018-04-14T17:04:35.926Z,58.90
2018-04-14T17:07:05.083Z,59.70
2018-04-14T17:09:34.788Z,59.00
2018-04-14T17:12:03.426Z,58.30
2018-04-14T17:14:32.717Z,59.70
2018-04-14T17:17:01.632Z,59.70
2018-04-14T17:19:30.189Z,59.70
2018-04-14T17:21:59.195Z,58.60
2018-04-14T17:24:29.857Z,61.00
2018-04-14T17:26:58.866Z,61.00
2018-04-14T17:29:27.376Z,61.60
2018-04-14T17:31:57.408Z,62.00
2018-04-14T17:34:26.698Z,62.10
2018-04-14T17:36:56.815Z,62.10
2018-04-14T17:39:25.875Z,62.10
2018-04-14T17:41:54.649Z,62.50
2018-04-14T17:44:23.829Z,61.80
2018-04-14T17:46:53.129Z,63.60
2018-04-14T17:49:23.320Z,63.60
2018-04-14T17:51:51.755Z,63.50
2018-04-14T17:54:20.393Z,62.80
2018-04-14T17:56:49.571Z,63.00
2018-04-14T17:59:18.302Z,62.80
2018-04-14T18:01:47.759Z,63.70
2018-04-14T18:04:17.412Z,62.80
2018-04-14T18:06:46.085Z,63.00
2018-04-14T18:09:15.746Z,62.80
2018-04-14T18:11:45.304Z,63.90
2018-04-14T18:14:15.474Z,63.80
2018-04-14T18:16:44.061Z,63.50
2018-04-14T18:19:14.404Z,64.00
2018-04-14T18:21:42.298Z,64.00
2018-04-14T18:24:11.161Z,64.50
2018-04-14T18:26:39.851Z,65.30
2018-04-14T18:29:08.065Z,65.30
2018-04-14T18:31:36.239Z,65.90
2018-04-14T18:34:04.542Z,65.00
2018-04-14T18:36:32.560Z,64.90
2018-04-14T18:39:00.877Z,64.10
2018-04-14T18:41:29.172Z,65.60
2018-04-14T18:43:58.256Z,64.90
2018-04-14T18:46:26.719Z,64.60
2018-04-14T18:48:54.955Z,65.10
2018-04-14T18:51:23.654Z,65.00
2018-04-14T18:53:51.950Z,65.50
2018-04-14T18:56:20.053Z,65.10
2018-04-14T18:58:48.064Z,66.10
2018-04-14T19:01:17.215Z,66.10
2018-04-14T19:03:46.481Z,66.40
2018-04-14T19:06:16.257Z,66.20
2018-04-14T19:08:46.585Z,66.50
2018-04-14T19:11:15.583Z,66.20
2018-04-14T19:13:44.063Z,66.20
2018-04-14T19:16:13.996Z,67.00
2018-04-14T19:18:42.505Z,67.10
2018-04-14T19:21:10.433Z,68.20
2018-04-14T19:23:38.803Z,68.90
2018-04-14T19:26:07.004Z,68.20
2018-04-14T19:28:36.030Z,68.00
2018-04-14T19:31:03.917Z,68.70
2018-04-14T19:33:32.512Z,68.40
2018-04-14T19:36:00.898Z,68.50
2018-04-14T19:38:29.306Z,68.90
2018-04-14T19:40:57.713Z,69.80
2018-04-14T19:43:25.760Z,69.50
2018-04-14T19:48:24.270Z,69.80
2018-04-14T19:50:52.206Z,69.30
2018-04-14T19:53:21.022Z,69.30
2018-04-14T19:55:49.142Z,69.30
2018-04-14T19:58:17.703Z,69.00
2018-04-14T20:00:46.146Z,69.00
2018-04-14T20:03:16.277Z,69.10
2018-04-14T20:05:44.292Z,69.50
2018-04-14T20:08:12.623Z,69.60
2018-04-14T20:10:41.026Z,69.20
2018-04-14T20:13:10.984Z,69.60
2018-04-14T20:15:39.504Z,69.70
2018-04-14T20:18:07.505Z,69.20
2018-04-14T20:20:36.000Z,69.00
2018-04-14T20:23:04.826Z,68.70
2018-04-14T20:25:33.882Z,69.70
2018-04-14T20:28:02.754Z,69.20
2018-04-14T20:30:30.784Z,69.20
2018-04-14T20:32:59.025Z,70.00
2018-04-14T20:35:27.211Z,70.40
2018-04-14T20:37:56.687Z,69.80
2018-04-14T20:40:24.726Z,69.30
2018-04-14T20:42:52.927Z,69.60
2018-04-14T20:45:21.649Z,70.00
2018-04-14T20:47:50.954Z,70.10
2018-04-14T20:50:19.054Z,70.00
2018-04-14T20:52:47.091Z,69.80
2018-04-14T20:55:15.540Z,69.80
2018-04-14T20:57:43.843Z,69.50
2018-04-14T21:00:12.075Z,70.10
2018-04-14T21:02:40.178Z,69.90
2018-04-14T21:05:08.445Z,70.00
2018-04-14T21:07:36.541Z,70.50
2018-04-14T21:10:05.679Z,70.90
2018-04-14T21:12:34.777Z,70.10
2018-04-14T21:15:03.390Z,70.00
2018-04-14T21:17:32.013Z,70.40
2018-04-14T21:20:01.110Z,70.50
2018-04-14T21:22:29.558Z,70.30
2018-04-14T21:24:58.887Z,70.50
2018-04-14T21:27:28.223Z,70.50
2018-04-14T21:29:57.365Z,70.70
2018-04-14T21:32:26.234Z,70.70
2018-04-14T21:34:54.151Z,70.70
2018-04-14T21:37:22.418Z,71.10
2018-04-14T21:39:50.370Z,71.20
2018-04-14T21:42:18.605Z,71.30
2018-04-14T21:44:48.163Z,71.00
2018-04-14T21:47:17.333Z,70.70
2018-04-14T21:49:45.458Z,70.70
2018-04-14T21:52:14.345Z,71.50
2018-04-14T21:54:42.369Z,71.30
2018-04-14T21:57:13.068Z,71.00
2018-04-14T21:59:41.311Z,71.00
2018-04-14T22:02:10.558Z,71.00
2018-04-14T22:04:39.923Z,72.10
2018-04-14T22:07:09.237Z,71.50
2018-04-14T22:09:37.219Z,71.50
2018-04-14T22:12:05.612Z,71.80
2018-04-14T22:14:35.869Z,72.60
2018-04-14T22:17:04.223Z,72.80
2018-04-14T22:19:33.441Z,72.70
2018-04-14T22:22:01.926Z,72.90
2018-04-14T22:24:29.885Z,72.70
2018-04-14T22:26:57.680Z,72.50
2018-04-14T22:29:25.870Z,72.50
2018-04-14T22:31:54.746Z,72.20
2018-04-14T22:34:22.615Z,72.00
2018-04-14T22:36:51.011Z,72.80
2018-04-14T22:39:19.070Z,73.00
2018-04-14T22:42:01.240Z,73.80
2018-04-14T22:44:30.869Z,73.90
2018-04-14T22:46:58.652Z,74.40
2018-04-14T22:49:26.648Z,75.80
2018-04-14T22:51:57.242Z,76.20
2018-04-14T22:54:25.221Z,76.10
2018-04-14T22:56:53.342Z,76.50
2018-04-14T22:59:21.471Z,77.90
2018-04-14T23:01:49.716Z,79.50
2018-04-14T23:04:18.182Z,79.70
2018-04-14T23:06:46.241Z,79.40
2018-04-14T23:09:14.826Z,80.10
2018-04-14T23:11:43.639Z,80.70
2018-04-14T23:14:11.640Z,80.70
2018-04-14T23:16:41.303Z,81.10
2018-04-14T23:19:09.201Z,81.10
2018-04-14T23:21:36.967Z,81.00
2018-04-14T23:24:05.196Z,81.00
2018-04-14T23:26:33.386Z,80.90
2018-04-14T23:29:01.935Z,81.20
2018-04-14T23:31:29.796Z,80.20
2018-04-14T23:33:58.871Z,81.30
2018-04-14T23:36:26.887Z,81.20
2018-04-14T23:38:55.016Z,81.10
2018-04-14T23:41:24.484Z,81.10
2018-04-14T23:43:54.380Z,81.70
2018-04-14T23:46:22.502Z,81.70
2018-04-14T23:48:51.862Z,82.60
2018-04-14T23:51:20.381Z,83.60
2018-04-14T23:53:49.868Z,84.00
2018-04-14T23:56:17.873Z,83.90
2018-04-14T23:58:46.980Z,85.00
